x

Montauk Point -23 Nm Ssw Of Montauk Point, Ny (44017) Wave Buoy

12:50pm - Fri 28th Aug 2015 All times are EDT. -4 hours from GMT.

  • Sig Wave height 2.6ft
  • Swell Direction
  • Peak Period 10s
  • Average Period 7s
  • Wind
    2mph, 4mph gusts
  • Sea Temp 74°f
  • Air Temp 69°f
  • Sea Pressure 1021.4mb
  • Montauk Point -23 Nm Ssw Of Montauk Point, Ny
  • Montauk Point -23 Nm Ssw Of Montauk Point, Ny

More Historic Weather Station data

Upgrade to MSW Pro to gain access to the past 30 days of data for over 8000 Wavebouys and Weather Stations around the globe.

Join Pro

Comparision Forecast

View Surf forecast
   
Fri 08/28 12:50pm 2.5ft 10s 7s 2 4 mph 1021.4mb 74f 69f
11:50am 2.5ft 10s 7s 4 7 mph 1021.6mb 73f 69f
10:50am 2.5ft 11s 6s 4 7 mph 1021.4mb 72f 68f
9:50am 2.5ft 10s 6s 7 9 mph 1020.9mb 72f 68f
8:50am 2.5ft 11s 6s 7 9 mph 1020.4mb 72f 68f
7:50am 3ft 9s 6s 9 11 mph 1020mb 73f 68f
6:50am 2.5ft 10s 6s 9 11 mph 1019.6mb 73f 68f
5:50am 2.5ft 10s 6s 11 13 mph 1019mb 73f 69f
4:50am 3ft 10s 6s 13 16 mph 1018.8mb 72f 69f
3:50am 3ft 11s 5s 13 16 mph 1018.7mb 72f 69f
2:50am 2.5ft 10s 6s 13 16 mph 1018.6mb 72f 70f
1:50am 3ft 11s 6s 11
mph
1018.9mb 73f 71f
12:50am 2.5ft 10s 6s 11 13 mph 1019.1mb 73f 72f
Thu 08/27 11:50pm 2.5ft 10s 6s 11 16 mph 1018.7mb 73f 73f
10:50pm 2.5ft 11s 6s 9 11 mph 1018.3mb 73f 74f
9:50pm 2.5ft 10s 6s 11
mph
1017.9mb 74f 74f
8:50pm 2.5ft 10s 5s 11 13 mph 1017.4mb 73f 74f
7:50pm 2.5ft 10s 5s 13 16 mph 1016.8mb 73f 73f
6:50pm 2.5ft 8s 5s 13 16 mph 1016.5mb 73f 73f
5:50pm 2.5ft 10s 6s 13 16 mph 1016.4mb 73f 73f
4:50pm 2.5ft 11s 6s 11 13 mph 1016.2mb 73f 72f
3:50pm 2.5ft 10s 6s 11 13 mph 1016.3mb 72f 72f
2:50pm 2.5ft 11s 6s 11 13 mph 1016.8mb 72f 71f
1:50pm 2.5ft 9s 6s 7 9 mph 1017mb 72f 71f
12:50pm 2.5ft 10s 5s 7
mph
1017mb 72f 71f
11:50am 2.5ft 10s 5s 7 11 mph 1017.6mb 72f 70f
10:50am 2.5ft 10s 5s 9 11 mph 1017.4mb 72f 69f
9:50am 2.5ft 10s 5s 11 13 mph 1017.2mb 72f 69f
8:50am 2.5ft 10s 5s 11 13 mph 1016.7mb 72f 69f
7:50am 2ft 10s 5s 9 11 mph 1016.3mb 72f 69f
6:50am 2.5ft 10s 5s 9 11 mph 1015.7mb 72f 70f
5:50am 2.5ft 10s 4s 11 13 mph 1015.1mb 72f 70f
4:50am 2.5ft 11s 4s 13 16 mph 1014.4mb 72f 71f
3:50am 2.5ft 10s 5s 16 18 mph 1014.1mb 73f 71f
2:50am 2.5ft 5s 5s 13 16 mph 1014.2mb 74f 72f
1:50am 2.5ft 5s 5s 18 20 mph 1014.4mb 74f 73f
12:50am 3.5ft 5s 4s 16 18 mph 1014.6mb 74f 75f
Wed 08/26 11:50pm 3.5ft 5s 4s 18 20 mph 1014.7mb 75f 76f
10:50pm 3ft 5s 4s 20 25 mph 1014.6mb 75f 76f
9:50pm 3ft 4s 4s 18 20 mph 1014.4mb 75f 76f
8:50pm 2.5ft 4s 4s 18 20 mph 1013.9mb 75f 76f
7:50pm 3ft 8s 4s 18 22 mph 1013.1mb 74f 76f
5:50pm 3.5ft 4s 4s 18 20 mph 1012.7mb 73f 75f
4:50pm 3ft 4s 4s 20 22 mph 1012.7mb 74f 75f
3:50pm 3ft 10s 4s 18 20 mph 1013mb 74f 75f
2:50pm 2.5ft 10s 4s 16 20 mph 1013.2mb 73f 74f
1:50pm 2.5ft 10s 5s 16 18 mph 1013.7mb 73f 73f
12:50pm 2.5ft 11s 5s 13 16 mph 1013.9mb 73f 73f
11:50am 2.5ft 9s 5s 11 13 mph 1014.2mb 74f 73f
10:50am 2.5ft 7s 5s 9 11 mph 1013.8mb 75f 73f
9:50am 2.5ft 10s 5s 9 11 mph 1013.5mb 75f 72f
8:50am 2.5ft 10s 5s 11 13 mph 1013.1mb 76f 71f
7:50am 2.5ft 10s 5s 11 13 mph 1012.9mb 76f 72f
6:50am 3.5ft 10s 5s 13 16 mph 1012.1mb 76f 72f
5:50am 3.5ft 10s 5s 16 18 mph 1011mb 76f 73f
4:50am 3ft 11s 5s 16 20 mph 1010.8mb 76f 74f
3:50am 3.5ft 11s 5s 13 16 mph 1010.9mb 77f 75f
2:50am 3ft 11s 5s 16 18 mph 1010.8mb 77f 76f
1:50am 3ft 8s 5s 11 13 mph 1010.8mb 77f 76f
12:50am 3ft 11s 5s 13 16 mph 1010.7mb 77f 76f
Tue 08/25 11:50pm 3ft 11s 5s 11 13 mph 1010.9mb 77f 77f
10:50pm 3ft 11s 5s 13 16 mph 1011.3mb 77f 77f
9:50pm 2.5ft 11s 5s 13 16 mph 1011.4mb 77f 77f
8:50pm 2.5ft 10s 5s 13 16 mph 1011.1mb 77f 77f
7:50pm 2.5ft 11s 5s 11 13 mph 1010.7mb 77f 77f
6:50pm 2.5ft 11s 5s 11 13 mph 1010.6mb 77f 77f
5:50pm 2.5ft 11s 5s 13 16 mph 1010.5mb 77f 78f
4:50pm 2.5ft 10s 5s 13 16 mph 1010.5mb 77f 78f
3:50pm 2.5ft 8s 5s 13 16 mph 1010.7mb 77f 77f
2:50pm 2.5ft 8s 5s 11 13 mph 1011.1mb 77f 77f
1:50pm 2.5ft 8s 6s 11 13 mph 1011.3mb 77f 77f
12:50pm 2.5ft 8s 6s 11 13 mph 1011.8mb 77f 77f
11:50am 2.5ft 8s 6s 9 11 mph 1012.3mb 77f 77f
10:50am 2.5ft 7s 6s 9 11 mph 1012.2mb 76f 76f
9:50am 2.5ft 8s 6s 9
mph
1011.8mb 76f 76f
8:50am 3ft 8s 7s 7 9 mph 1011.6mb 76f 75f
7:50am 3ft 8s 7s 7
mph
1011.5mb 76f 75f
6:50am 3ft 8s 7s 2 4 mph 1011.3mb 76f 75f
5:50am 3ft 8s 7s 2
mph
1011.2mb 76f 74f
4:50am 3ft 8s 7s  -  2 mph 1010.8mb 76f 75f
3:50am 3.5ft 8s 7s  -  2 mph 1011mb 76f 75f
2:50am 3.5ft 8s 7s 2
mph
1011.2mb 76f 75f
1:50am 3ft 8s 7s  -  2 mph 1011.5mb 76f 75f
12:50am 3.5ft 8s 7s 2
mph
1011.9mb 76f 76f
Mon 08/24 11:50pm 3.5ft 8s 7s 4 7 mph 1011.8mb 76f 76f
10:50pm 3.5ft 8s 7s 4 7 mph 1011.7mb 76f 76f
9:50pm 3.5ft 8s 7s 9
mph
1011.6mb 76f 76f
8:50pm 3.5ft 9s 6s 7 9 mph 1011.5mb 76f 75f
7:50pm 3.5ft 9s 6s 7 9 mph 1011.6mb 76f 75f
6:50pm 3.5ft 7s 6s 9 11 mph 1011.3mb 76f 75f